aviador You're here:

KSDC Decoded Metar

in
Report Time2018-07-18 10:15:00
UTC Time2018-07-18 10:59:57
Flight Rules vfr VFR
Wind040° at 04 kt
W.Decomp.*RWY 10: 2.0 kt HW 3.5 kt LCW
W.Rank040° ranks 22
Current wind is below 040° avg. (5.1)
Visibility9999 m
Phenomena:N/A
Clouds:Scattered 027 Hf
Broken 034 Hf
Broken 065 Hf
Expected CloudBase > 2,000 ft AGL from Temp-Dew spread
Ceiling3,400 ft
Temp18°C
Dew Point13°C (73% RH)
AAT17.5°C
QNH1017 hPa
Raw Report
KSDC 181015Z AUTO 04004KT 10SM SCT027 BKN034 BKN065 18/13 A3002
RMK AO2=

Extra information for KSDC:More info

Social comments